Latest Weather Observations for Tunnack

IDT60801

Issued at 5:02 pm EST Sunday 31 July 2016 (issued every 30 minutes, with the page automatically refreshed every 10 minutes)

About weather observations | Map of weather stations | Latest weather observations for TAS | Other Formats
Station Details ID: 094195 Name: TUNNACK FIRE STATION Lat: -42.45 Lon: 147.46 Height: 461.5 m
Data from the previous 72 hours. | See also: Recent months at Tunnack
Date/Time
EST
Temp
°C
App
Temp
°C
Dew
Point
°C
Rel
Hum
%
Delta-T
°C
Wind Press
QNH
hPa
Press
MSL
hPa
Rain since
9am
mm
Dir  Spd
km/h
Gust
km/h
Spd
kts
Gust
kts
31/05:00pm 7.4 1.2 2.1 69 2.3 WNW 24 35 13 19 1009.5 1010.5 0.0
31/04:30pm 8.3 0.4 2.5 67 2.5 WNW 33 41 18 22 1008.9 1009.9 0.0
31/04:00pm 9.1 3.3 2.4 63 2.9 WNW 22 39 12 21 1009.0 1010.0 0.0
31/03:30pm 9.8 4.5 1.7 57 3.5 WNW 19 30 10 16 1009.3 1010.3 0.0
31/03:00pm 10.1 4.9 3.4 63 3.0 WNW 20 32 11 17 1009.1 1010.1 0.0
31/02:30pm 10.2 4.1 3.0 61 3.2 WNW 24 35 13 19 1008.9 1009.9 0.0
31/02:00pm 9.0 2.9 3.0 66 2.6 WSW 24 35 13 19 1008.7 1009.7 0.0
31/01:30pm 9.4 3.7 2.7 63 2.9 WSW 22 41 12 22 1008.2 1009.1 0.0
31/01:00pm 9.3 4.1 3.3 66 2.7 SW 20 35 11 19 1008.3 1009.3 0.0
31/12:30pm 8.4 2.7 2.6 67 2.5 WSW 22 41 12 22 1008.6 1009.6 0.0
31/12:00pm 8.6 2.9 3.0 68 2.5 WSW 22 33 12 18 1008.7 1009.7 0.0
31/11:30am 8.7 1.9 3.3 69 2.4 W 28 41 15 22 1008.3 1009.3 0.0
31/11:29am 8.8 2.1 3.4 69 2.4 W 28 46 15 25 1008.3 1009.3 0.0
31/11:00am 8.8 3.2 3.6 70 2.3 W 22 37 12 20 1008.2 1009.1 0.0
31/10:30am 7.7 3.7 3.0 72 2.0 W 13 26 7 14 1008.3 1009.3 0.0
31/10:00am 7.0 3.5 3.3 77 1.6 SW 11 24 6 13 1007.9 1008.8 0.0
31/09:30am 6.6 3.0 3.2 79 1.5 WNW 11 20 6 11 1007.4 1008.4 0.0
31/09:00am 6.0 2.7 2.5 78 1.5 NW 9 15 5 8 1007.1 1008.1 3.0
31/08:30am 5.2 1.9 2.4 82 1.2 E 9 13 5 7 1006.6 1007.6 3.0
31/08:00am 4.8 1.8 2.2 83 1.1 NE 7 11 4 6 1006.0 1006.9 3.0
31/07:30am 4.7 1.7 2.1 83 1.1 W 7 15 4 8 1005.4 1006.4 3.0
31/07:00am 4.8 -0.1 2.0 82 1.2 W 17 28 9 15 1004.9 1005.9 3.0
31/06:30am 5.0 -0.8 2.4 83 1.1 W 22 35 12 19 1004.5 1005.4 3.0
31/06:00am 5.5 -0.9 3.0 84 1.1 W 26 44 14 24 1004.7 1005.7 2.6
31/05:30am 6.0 2.0 2.6 79 1.4 WNW 13 24 7 13 1003.8 1004.7 2.2
31/05:00am 6.5 1.1 2.6 76 1.7 NW 20 32 11 17 1003.3 1004.2 2.2
31/04:30am 6.6 1.9 3.0 78 1.5 WNW 17 28 9 15 1003.4 1004.3 2.2
31/04:00am 6.7 1.5 3.3 79 1.5 WNW 20 30 11 16 1002.9 1003.9 2.2
31/03:34am 7.9 1.2 3.9 76 1.8 W 28 46 15 25 1002.6 1003.5 2.2
31/03:30am 7.8 1.2 4.0 77 1.7 W 28 44 15 24 1002.6 1003.5 2.2
31/03:00am 7.3 2.3 4.8 84 1.1 WNW 20 28 11 15 1002.3 1003.2 2.2
31/02:30am 7.4 0.0 5.2 86 1.0 WNW 33 72 18 39 1002.5 1003.4 2.2
31/02:27am 7.6 1.2 5.4 86 1.0 WNW 28 72 15 39 1003.0 1004.0 2.2
31/02:25am 7.9 2.4 6.0 88 0.9 WNW 24 72 13 39 1003.4 1004.3 2.0
31/02:00am 8.5 2.1 7.0 90 0.7 NNW 30 39 16 21 1002.0 1002.9 0.0
31/01:30am 8.3 1.0 7.1 92 0.6 NNW 35 46 19 25 1001.7 1002.6 0.0
31/01:03am 8.2 -0.3 7.0 92 0.6 N 41 59 22 32 1001.8 1002.7 0.0
31/01:00am 8.2 -0.7 7.0 92 0.6 N 43 59 23 32 1001.9 1002.8 0.0
31/12:30am 7.9 -0.3 6.5 91 0.7 N 39 54 21 29 1002.6 1003.5 0.0
31/12:17am 7.8 0.9 6.6 92 0.6 N 32 52 17 28 1003.1 1004.1 0.0
31/12:00am 7.5 -0.7 6.4 93 0.5 N 39 50 21 27 1003.6 1004.5 0.0
 
Date/Time
EST
Temp
°C
App
Temp
°C
Dew
Point
°C
Rel
Hum
%
Delta-T
°C
Wind Press
QNH
hPa
Press
MSL
hPa
Rain since
9am
mm
Dir  Spd
km/h
Gust
km/h
Spd
kts
Gust
kts
30/11:30pm 6.7 -0.3 6.1 96 0.3 N 32 46 17 25 1004.0 1004.9 0.0
30/11:00pm 7.0 1.2 6.3 95 0.3 N 26 39 14 21 1004.9 1005.9 0.0
30/10:30pm 6.5 0.2 5.8 95 0.3 N 28 41 15 22 1005.3 1006.3 0.0
30/10:00pm 5.9 -0.4 5.5 97 0.2 N 28 35 15 19 1006.1 1007.0 0.0
30/09:30pm 5.7 -0.7 5.3 97 0.2 N 28 43 15 23 1006.9 1007.9 0.0
30/09:00pm 5.6 0.3 5.2 97 0.2 NNE 22 33 12 18 1007.5 1008.5 0.0
30/08:30pm 5.4 0.1 4.8 96 0.3 N 22 32 12 17 1008.3 1009.3 0.0
30/08:00pm 5.4 -0.4 4.5 94 0.4 N 24 35 13 19 1008.2 1009.1 0.0
30/07:30pm 5.0 -2.0 4.1 94 0.4 N 30 37 16 20 1008.6 1009.6 0.0
30/07:00pm 5.1 -0.8 3.8 91 0.6 N 24 37 13 20 1009.3 1010.3 0.0
30/06:30pm 5.1 -0.6 3.0 86 0.9 N 22 33 12 18 1009.4 1010.4 0.0
30/06:00pm 5.3 -1.6 2.3 81 1.3 N 28 39 15 21 1009.4 1010.4 0.0
30/05:38pm 5.4 -1.6 2.1 79 1.4 N 28 46 15 25 1009.7 1010.7 0.0
30/05:30pm 5.6 -2.1 2.1 78 1.5 N 32 46 17 25 1009.7 1010.7 0.0
30/05:00pm 5.7 0.2 1.6 75 1.7 N 20 32 11 17 1010.2 1011.2 0.0
30/04:30pm 5.7 0.1 1.1 72 1.9 N 20 32 11 17 1010.7 1011.7 0.0
30/04:00pm 6.0 -0.3 1.5 73 1.9 N 24 33 13 18 1011.1 1012.1 0.0
30/03:30pm 6.0 -0.7 1.7 74 1.8 N 26 41 14 22 1011.8 1012.8 0.0
30/03:00pm 6.5 0.2 1.4 70 2.1 N 24 37 13 20 1011.8 1012.8 0.0
30/02:30pm 7.0 0.8 2.1 71 2.1 N 24 35 13 19 1012.0 1013.1 0.0
30/02:00pm 6.5 0.3 2.0 73 1.9 N 24 33 13 18 1012.7 1013.7 0.0
30/01:30pm 6.1 0.1 1.2 71 2.0 N 22 35 12 19 1013.2 1014.2 0.0
30/01:00pm 5.5 -0.6 0.7 71 1.9 N 22 32 12 17 1013.9 1015.0 0.0
30/12:30pm 6.1 0.9 0.4 67 2.3 NNE 17 24 9 13 1014.5 1015.6 0.0
30/12:00pm 6.0 1.9 -0.3 64 2.5 NNE 11 15 6 8 1015.2 1016.2 0.0
30/11:30am 6.0 2.7 0.3 67 2.3 NNW 7 11 4 6 1016.0 1017.1 0.0
30/11:00am 5.5 1.8 -0.1 67 2.2 NW 9 15 5 8 1016.6 1017.7 0.0
30/10:30am 5.0 0.9 0.0 70 2.0 NW 11 13 6 7 1017.0 1018.0 0.0
30/10:00am 4.4 0.9 -1.0 68 2.0 NW 7 9 4 5 1017.0 1018.0 0.0
30/09:30am 3.4 0.2 -0.6 75 1.5 WNW 6 9 3 5 1017.3 1018.3 0.0
30/09:00am 1.8 -0.2 -0.4 85 0.8 CALM 0 4 0 2 1017.4 1018.5 0.2
30/08:30am 0.1 -3.8 -1.5 89 0.6 ESE 9 11 5 6 1017.3 1018.3 0.2
30/08:00am -1.7 -5.4 -2.5 94 0.2 ESE 7 11 4 6 1017.3 1018.3 0.2
30/07:30am -2.3 -5.5 -3.4 92 0.3 ESE 4 11 2 6 1017.1 1018.1 0.2
30/07:00am -1.1 -3.7 -1.9 94 0.2 NE 2 7 1 4 1017.0 1018.0 0.2
30/06:30am -1.7 -5.2 -2.7 93 0.3 E 6 9 3 5 1016.8 1017.9 0.2
30/06:00am -0.9 -4.6 -2.6 88 0.5 NNE 7 11 4 6 1016.7 1017.8 0.2
30/05:30am 0.9 -3.0 -1.2 86 0.8 W 9 13 5 7 1016.6 1017.7 0.2
30/05:00am 0.3 -3.3 -1.8 86 0.8 SSW 7 9 4 5 1016.5 1017.6 0.2
30/04:30am 0.8 -2.7 -1.1 87 0.7 W 7 11 4 6 1016.5 1017.6 0.2
30/04:00am 0.1 -2.9 -1.5 89 0.6 SSW 4 7 2 4 1016.7 1017.8 0.2
30/03:30am 1.2 -0.9 -0.9 86 0.8 CALM 0 0 0 0 1016.5 1017.6 0.2
30/03:00am 2.3 -1.9 -0.8 80 1.2 W 11 17 6 9 1016.3 1017.4 0.2
30/02:30am 2.7 -1.4 -0.4 80 1.2 W 11 19 6 10 1016.5 1017.6 0.2
30/02:00am 2.5 -1.3 -0.6 80 1.2 SW 9 15 5 8 1016.3 1017.4 0.2
30/01:30am 3.3 -2.0 -0.5 76 1.4 WSW 17 22 9 12 1016.1 1017.2 0.2
30/01:00am 3.3 -2.0 -0.3 77 1.4 WSW 17 24 9 13 1015.9 1017.0 0.2
30/12:30am 3.6 -2.2 -0.2 76 1.5 WSW 20 28 11 15 1015.4 1016.4 0.2
30/12:00am 4.0 -1.3 -0.8 71 1.8 WSW 17 32 9 17 1015.6 1016.7 0.2
 
Date/Time
EST
Temp
°C
App
Temp
°C
Dew
Point
°C
Rel
Hum
%
Delta-T
°C
Wind Press
QNH
hPa
Press
MSL
hPa
Rain since
9am
mm
Dir  Spd
km/h
Gust
km/h
Spd
kts
Gust
kts
29/11:30pm 4.2 -2.5 -1.4 67 2.1 SW 24 43 13 23 1015.0 1016.0 0.2
29/11:00pm 4.2 -2.2 -1.6 66 2.2 SW 22 39 12 21 1014.2 1015.3 0.2
29/10:30pm 4.6 -3.7 -1.8 63 2.4 SW 32 57 17 31 1013.6 1014.6 0.2
29/10:00pm 4.7 -4.4 -0.9 67 2.1 WSW 37 61 20 33 1012.8 1013.8 0.2
29/09:38pm 5.0 -3.1 -0.6 67 2.2 SW 32 57 17 31 1013.2 1014.2 0.2
29/09:30pm 4.8 -2.6 -0.4 69 2.0 WSW 28 43 15 23 1013.3 1014.3 0.2
29/09:00pm 5.1 -3.1 -0.9 65 2.3 WSW 32 43 17 23 1012.9 1013.9 0.2
29/08:47pm 5.3 -2.2 -1.4 62 2.5 WSW 28 57 15 31 1012.9 1013.9 0.2
29/08:30pm 5.1 -0.2 -0.7 66 2.2 S 17 28 9 15 1013.0 1014.0 0.2
29/08:00pm 5.5 -2.7 0.1 68 2.1 WSW 33 61 18 33 1011.8 1012.8 0.2
29/07:44pm 5.6 -1.8 -0.7 64 2.4 SW 28 48 15 26 1011.5 1012.5 0.2
29/07:30pm 5.4 -0.9 -0.8 64 2.4 WSW 22 35 12 19 1011.2 1012.2 0.2
29/07:00pm 5.7 -2.1 -0.8 63 2.5 WSW 30 56 16 30 1010.7 1011.7 0.2
29/06:30pm 6.0 -2.3 -0.3 64 2.5 SW 33 56 18 30 1010.3 1011.3 0.2
29/06:00pm 6.3 -1.1 1.8 73 1.9 SW 30 50 16 27 1008.9 1009.9 0.2
29/05:30pm 7.4 -0.3 3.3 75 1.8 WSW 33 54 18 29 1008.0 1008.9 0.2
29/05:21pm 7.5 0.8 3.7 77 1.7 WSW 28 52 15 28 1007.6 1008.6 0.2
29/05:00pm 7.4 2.3 4.2 80 1.4 W 20 30 11 16 1007.3 1008.3 0.2
29/04:30pm 7.3 2.3 4.6 83 1.2 W 20 33 11 18 1006.8 1007.8 0.2
29/04:00pm 7.7 0.4 4.3 79 1.5 W 32 56 17 30 1006.4 1007.3 0.2
29/03:30pm 8.3 1.7 4.1 75 1.9 WSW 28 52 15 28 1006.2 1007.1 0.2
29/03:00pm 9.4 1.7 3.4 66 2.7 W 33 59 18 32 1005.4 1006.4 0.0
29/02:37pm 9.8 3.2 4.0 67 2.6 W 28 50 15 27 1004.8 1005.8 0.0
29/02:30pm 9.5 3.3 4.3 70 2.4 WNW 26 50 14 27 1004.8 1005.8 0.0
29/02:00pm 9.6 1.6 3.6 66 2.7 WNW 35 54 19 29 1004.7 1005.7 0.0
29/01:30pm 9.9 1.7 4.9 71 2.3 WNW 37 56 20 30 1004.8 1005.8 0.0
29/01:00pm 9.3 0.2 4.1 70 2.4 WNW 41 67 22 36 1005.4 1006.4 0.0
29/12:35pm 9.3 2.8 4.7 73 2.1 WNW 28 56 15 30 1005.6 1006.5 0.0
29/12:30pm 9.3 4.1 5.7 78 1.7 WNW 22 37 12 20 1005.8 1006.7 0.0
29/12:00pm 8.0 2.4 5.5 84 1.2 WNW 24 39 13 21 1006.3 1007.2 0.0
29/11:30am 8.5 2.0 4.7 77 1.7 NW 28 48 15 26 1006.4 1007.3 0.0
29/11:24am 8.7 2.2 4.5 75 1.9 NW 28 48 15 26 1006.6 1007.6 0.0
29/11:00am 8.8 2.9 4.0 72 2.2 WNW 24 39 13 21 1007.1 1008.1 0.0
29/10:43am 9.2 2.6 4.4 72 2.2 WNW 28 50 15 27 1007.1 1008.1 0.0
29/10:30am 8.9 2.7 4.3 73 2.1 WNW 26 39 14 21 1007.2 1008.2 0.0
29/10:00am 9.1 4.5 3.9 70 2.3 NW 17 28 9 15 1006.9 1007.9 0.0
29/09:30am 8.6 3.6 3.8 72 2.1 NW 19 24 10 13 1007.0 1008.0 0.0
29/09:00am 8.1 3.5 3.8 74 1.9 NW 17 22 9 12 1007.4 1008.4 0.0
29/08:30am 8.0 4.1 3.3 72 2.1 NNW 13 20 7 11 1007.7 1008.7 0.0
29/08:00am 6.3 3.6 2.9 79 1.5 NNE 6 7 3 4 1007.7 1008.7 0.0
29/07:30am 6.4 2.8 2.7 77 1.6 N 11 20 6 11 1007.5 1008.5 0.0
29/07:00am 7.1 2.2 2.0 70 2.2 NNW 17 28 9 15 1007.5 1008.5 0.0
29/06:30am 6.7 2.5 1.8 71 2.0 NW 13 19 7 10 1007.7 1008.7 0.0
29/06:00am 7.0 1.7 1.7 69 2.2 NW 19 33 10 18 1007.9 1008.8 0.0
29/05:30am 6.8 1.3 1.7 70 2.1 NW 20 32 11 17 1007.6 1008.6 0.0
29/05:00am 7.2 -0.1 2.3 71 2.1 NW 30 39 16 21 1007.7 1008.7 0.0
29/04:49am 7.1 1.7 2.4 72 2.0 NNW 20 39 11 21 1007.9 1008.8 0.0
29/04:30am 6.4 2.0 2.5 76 1.7 NNW 15 20 8 11 1008.0 1008.9 0.0
29/04:00am 7.1 2.2 2.0 70 2.2 NNW 17 24 9 13 1007.9 1008.8 0.0
29/03:30am 6.9 1.1 2.2 72 2.0 NW 22 32 12 17 1008.2 1009.1 0.0
29/03:00am 7.0 -0.2 2.9 75 1.8 NW 30 39 16 21 1008.2 1009.1 0.0
29/02:30am 6.8 1.0 2.3 73 1.9 NW 22 32 12 17 1008.7 1009.7 0.0
29/02:00am 7.0 1.2 2.3 72 2.0 NW 22 35 12 19 1009.1 1010.1 0.0
29/01:30am 7.2 0.2 2.1 70 2.2 NW 28 35 15 19 1009.2 1010.2 0.0
29/01:00am 6.9 1.7 2.2 72 2.0 NW 19 35 10 19 1009.6 1010.6 0.0
29/12:30am 7.1 2.3 2.6 73 1.9 WNW 17 26 9 14 1009.8 1010.8 0.0
29/12:00am 7.2 1.9 2.9 74 1.9 NW 20 28 11 15 1010.0 1011.0 0.0
 
Date/Time
EST
Temp
°C
App
Temp
°C
Dew
Point
°C
Rel
Hum
%
Delta-T
°C
Wind Press
QNH
hPa
Press
MSL
hPa
Rain since
9am
mm
Dir  Spd
km/h
Gust
km/h
Spd
kts
Gust
kts
28/11:30pm 7.1 2.4 3.2 76 1.7 WNW 17 24 9 13 1010.2 1011.2 0.0
28/11:00pm 6.8 3.2 3.2 78 1.6 WNW 11 17 6 9 1010.5 1011.5 0.0
28/10:30pm 7.0 3.5 3.6 79 1.5 WNW 11 17 6 9 1010.8 1011.8 0.0
28/10:00pm 7.1 3.6 3.5 78 1.6 WNW 11 20 6 11 1010.9 1011.9 0.0
28/09:30pm 7.4 2.2 3.5 76 1.7 WNW 20 32 11 17 1011.3 1012.3 0.0
28/09:00pm 7.4 1.8 3.5 76 1.7 NW 22 37 12 20 1011.3 1012.3 0.0
28/08:30pm 7.4 1.9 3.8 78 1.6 NW 22 32 12 17 1011.5 1012.5 0.0
28/08:00pm 7.4 1.1 3.5 76 1.7 NW 26 37 14 20 1011.2 1012.2 0.0
28/07:30pm 7.2 -0.5 3.4 77 1.7 NW 33 46 18 25 1011.0 1012.0 0.0
28/07:00pm 7.2 0.1 3.4 77 1.7 WNW 30 48 16 26 1010.9 1011.9 0.0
28/06:30pm 7.3 1.7 3.2 75 1.8 WNW 22 35 12 19 1010.4 1011.4 0.0
28/06:00pm 7.6 1.2 3.3 74 1.9 W 26 44 14 24 1009.9 1010.9 0.0
28/05:30pm 8.0 2.7 3.1 71 2.1 W 20 33 11 18 1010.0 1011.0 0.0

Other Formats:

Comma delimited format used in spreadsheet applications
http://www.bom.gov.au/fwo/IDT60801/IDT60801.94960.axf

JavaScript Object Notation format (JSON) in row-major order
http://www.bom.gov.au/fwo/IDT60801/IDT60801.94960.json